Terminal Aerodrome Forecast
Issued by NWS

Home | Current Version | Previous Version | Text Only | Print | Product List | Glossary On
Versions: 1 2 3 4 5 6 7 8 9 10 11 12 13 14 15 16
972
FTUS45 KTFX 281134
TAFCTB
TAF
KCTB 281134Z 2812/2912 29010KT P6SM SCT110 BKN200
     FM281600 29018G25KT P6SM FEW100 SCT200
     FM282200 33011G18KT P6SM SCT050 BKN080
     FM290500 34015KT P6SM SCT020 OVC040 PROB30 2906/2912 -SHRA
      BKN020=

USA.gov is the U.S. government's official web portal to all federal, state and local government web resources and services.